Time;durP1;ratioP1;P1;durP2;ratioP2;P2;SDS_P1;SDS_P2;PMS_P1;PMS_P2;Temp;Humidity;BMP_temperature;BMP_pressure;BME280_temperature;BME280_humidity;BME280_pressure;Samples;Min_cycle;Max_cycle;Signal;HPM_P1;HPM_P2
2021/05/08 00:02:14;;;;;;;3.78;2.50;;;22.90;33.00;;;;;;6062939;28;80632;-67
2021/05/08 00:05:15;;;;;;;6.28;2.50;;;22.90;32.60;;;;;;6061603;28;81299;-67
2021/05/08 00:08:15;;;;;;;4.00;2.30;;;22.80;32.40;;;;;;6070171;28;80619;-68
2021/05/08 00:11:16;;;;;;;5.47;2.75;;;22.80;32.70;;;;;;6064358;28;80454;-67
2021/05/08 00:14:16;;;;;;;6.32;2.88;;;22.80;32.50;;;;;;6070534;28;82631;-66
2021/05/08 00:17:17;;;;;;;4.80;2.92;;;22.80;32.30;;;;;;6066794;28;80492;-66
2021/05/08 00:20:17;;;;;;;4.50;2.55;;;22.80;32.00;;;;;;6061106;28;80686;-65
2021/05/08 00:23:18;;;;;;;3.85;2.30;;;22.80;32.60;;;;;;6061507;28;80534;-64
2021/05/08 00:26:18;;;;;;;4.68;2.80;;;22.80;32.10;;;;;;6062693;28;81651;-66
2021/05/08 00:29:19;;;;;;;5.20;2.90;;;22.80;32.90;;;;;;6065422;28;80514;-66
2021/05/08 00:32:19;;;;;;;4.63;2.75;;;22.80;32.30;;;;;;6061796;28;80614;-65
2021/05/08 00:35:20;;;;;;;5.07;2.50;;;22.80;32.20;;;;;;6057388;28;80368;-65
2021/05/08 00:38:20;;;;;;;4.57;2.83;;;22.80;32.00;;;;;;6061804;28;81774;-65
2021/05/08 00:41:21;;;;;;;3.33;2.40;;;22.80;32.20;;;;;;6065857;28;81131;-64
2021/05/08 00:44:22;;;;;;;5.55;2.60;;;22.80;32.60;;;;;;6063430;28;81080;-64
2021/05/08 00:47:24;;;;;;;5.35;2.63;;;22.80;32.50;;;;;;6060646;28;81140;-65
2021/05/08 00:50:25;;;;;;;5.85;2.80;;;22.80;32.40;;;;;;6063197;28;80427;-66
2021/05/08 00:53:25;;;;;;;5.20;2.72;;;22.80;32.70;;;;;;6068801;28;80757;-65
2021/05/08 00:56:26;;;;;;;4.43;2.90;;;22.80;32.30;;;;;;6060408;28;80283;-66
2021/05/08 00:59:27;;;;;;;4.88;2.70;;;22.80;32.50;;;;;;6059877;28;83005;-65
2021/05/08 01:02:28;;;;;;;5.60;2.80;;;22.80;32.50;;;;;;6062748;28;82500;-66
2021/05/08 01:05:32;;;;;;;6.38;2.80;;;22.80;32.40;;;;;;6058928;28;82944;-65
2021/05/08 01:08:34;;;;;;;5.45;2.55;;;22.80;32.40;;;;;;6060633;28;82594;-65
2021/05/08 01:11:34;;;;;;;6.15;3.10;;;22.80;32.50;;;;;;6066037;28;83256;-64
2021/05/08 01:14:35;;;;;;;5.28;2.40;;;22.80;32.30;;;;;;6063605;28;83495;-64
2021/05/08 01:17:35;;;;;;;5.15;2.90;;;22.80;32.50;;;;;;6063473;28;81663;-64
2021/05/08 01:20:37;;;;;;;4.35;2.40;;;22.80;32.70;;;;;;6063107;28;82920;-65
2021/05/08 01:23:37;;;;;;;3.83;2.72;;;22.80;32.20;;;;;;6069720;28;80712;-65
2021/05/08 01:26:38;;;;;;;5.93;3.63;;;22.80;32.40;;;;;;6063326;28;81641;-65
2021/05/08 01:29:39;;;;;;;3.97;2.78;;;22.80;32.10;;;;;;6060086;28;80725;-65
2021/05/08 01:32:40;;;;;;;6.60;3.15;;;22.80;32.70;;;;;;6058276;28;80519;-65
2021/05/08 01:35:41;;;;;;;4.85;2.92;;;22.80;32.10;;;;;;6060449;28;80547;-66
2021/05/08 01:38:42;;;;;;;4.50;2.60;;;22.80;32.30;;;;;;6059278;28;82945;-65
2021/05/08 01:41:43;;;;;;;6.63;2.85;;;22.80;32.50;;;;;;6061492;28;83141;-66
2021/05/08 01:44:44;;;;;;;5.25;3.08;;;22.80;32.40;;;;;;6059701;28;83036;-66
2021/05/08 01:47:45;;;;;;;5.35;2.85;;;22.80;32.50;;;;;;6063078;28;83355;-65
2021/05/08 01:50:45;;;;;;;5.57;2.83;;;22.80;32.40;;;;;;6062586;28;80647;-65
2021/05/08 01:53:46;;;;;;;4.57;2.95;;;22.70;32.20;;;;;;6064084;28;80405;-66
2021/05/08 01:56:47;;;;;;;3.85;2.30;;;22.80;32.30;;;;;;6061455;28;80865;-66
2021/05/08 01:59:54;;;;;;;7.60;2.92;;;22.80;31.90;;;;;;6047751;28;82083;-65
2021/05/08 02:02:55;;;;;;;5.38;3.15;;;22.70;32.30;;;;;;6056551;28;83553;-65
2021/05/08 02:06:02;;;;;;;4.85;3.15;;;22.80;32.10;;;;;;6062978;28;82376;-66
2021/05/08 02:09:11;;;;;;;4.10;2.38;;;22.70;32.30;;;;;;6062621;28;82431;-66
2021/05/08 02:12:19;;;;;;;4.70;2.65;;;22.80;31.80;;;;;;6060559;28;82889;-66
2021/05/08 02:15:20;;;;;;;3.88;2.50;;;22.70;32.10;;;;;;6058128;28;83088;-65
2021/05/08 02:18:20;;;;;;;5.53;2.80;;;22.70;32.20;;;;;;6061341;28;83242;-65
2021/05/08 02:21:21;;;;;;;5.07;3.00;;;22.70;32.40;;;;;;6058957;28;80713;-66
2021/05/08 02:24:24;;;;;;;5.55;2.90;;;22.70;32.20;;;;;;6060324;28;80252;-66
2021/05/08 02:27:25;;;;;;;4.13;2.85;;;22.70;32.50;;;;;;6070433;28;83244;-66
2021/05/08 02:30:26;;;;;;;4.38;2.47;;;22.70;32.60;;;;;;6059721;28;83557;-65
2021/05/08 02:33:27;;;;;;;4.72;3.05;;;22.70;32.50;;;;;;6060860;28;80785;-66
2021/05/08 02:36:27;;;;;;;3.70;2.40;;;22.70;32.20;;;;;;6057882;28;81609;-65
2021/05/08 02:39:28;;;;;;;3.25;2.60;;;22.70;32.20;;;;;;6060522;28;82638;-66
2021/05/08 02:42:28;;;;;;;5.72;3.33;;;22.70;32.30;;;;;;6063378;28;81637;-65
2021/05/08 02:45:29;;;;;;;4.97;2.47;;;22.70;32.60;;;;;;6062077;28;83616;-65
2021/05/08 02:48:30;;;;;;;3.90;2.55;;;22.70;32.20;;;;;;6058993;28;81345;-66
2021/05/08 02:51:31;;;;;;;7.82;2.80;;;22.70;31.90;;;;;;6060496;28;81349;-65
2021/05/08 02:54:31;;;;;;;5.10;3.08;;;22.70;32.20;;;;;;6061917;28;80414;-66
2021/05/08 02:57:32;;;;;;;4.60;2.40;;;22.70;32.50;;;;;;6063880;28;80434;-66
2021/05/08 03:00:34;;;;;;;4.57;2.95;;;22.70;32.30;;;;;;6058791;28;83096;-66
2021/05/08 03:03:39;;;;;;;4.17;2.40;;;22.70;32.20;;;;;;6060383;28;82556;-66
2021/05/08 03:06:40;;;;;;;4.25;2.60;;;22.70;32.30;;;;;;6065268;28;82976;-66
2021/05/08 03:09:41;;;;;;;4.88;2.88;;;22.70;32.30;;;;;;6063868;28;81584;-66
2021/05/08 03:12:42;;;;;;;6.28;3.08;;;22.70;31.90;;;;;;6063827;28;83482;-66
2021/05/08 03:15:42;;;;;;;3.97;2.35;;;22.70;32.60;;;;;;6066746;28;82715;-66
2021/05/08 03:18:44;;;;;;;4.22;2.45;;;22.70;32.50;;;;;;6067847;28;80821;-66
2021/05/08 03:21:45;;;;;;;4.80;2.78;;;22.70;32.40;;;;;;6066291;28;80432;-66
2021/05/08 03:24:45;;;;;;;4.28;2.30;;;22.70;31.80;;;;;;6068630;28;81101;-66
2021/05/08 03:27:46;;;;;;;4.22;2.60;;;22.70;32.40;;;;;;6066075;28;81222;-65
2021/05/08 03:30:47;;;;;;;5.35;3.13;;;22.70;32.50;;;;;;6063264;28;83317;-66
2021/05/08 03:33:47;;;;;;;4.20;2.38;;;22.70;32.10;;;;;;6066117;28;81181;-65
2021/05/08 03:36:48;;;;;;;5.45;3.03;;;22.70;32.50;;;;;;6062068;28;83200;-66
2021/05/08 03:39:49;;;;;;;4.95;2.80;;;22.70;32.10;;;;;;6063200;28;80775;-65
2021/05/08 03:42:49;;;;;;;2.75;2.28;;;22.70;32.10;;;;;;6064655;28;80849;-65
2021/05/08 03:45:51;;;;;;;3.72;2.70;;;22.70;32.30;;;;;;6066522;28;80388;-66
2021/05/08 03:48:51;;;;;;;5.00;2.90;;;22.70;32.20;;;;;;6067830;28;80266;-66
2021/05/08 03:51:52;;;;;;;4.72;2.28;;;22.70;32.40;;;;;;6066652;28;80365;-65
2021/05/08 03:54:52;;;;;;;3.65;2.60;;;22.70;32.30;;;;;;6063825;28;80885;-65
2021/05/08 03:57:53;;;;;;;3.85;2.47;;;22.70;32.30;;;;;;6065400;28;81375;-65
2021/05/08 04:00:53;;;;;;;5.97;2.58;;;22.70;32.50;;;;;;6069498;28;80365;-65
2021/05/08 04:03:54;;;;;;;3.67;2.60;;;22.70;32.40;;;;;;6069883;28;83786;-65
2021/05/08 04:06:55;;;;;;;3.53;2.30;;;22.70;32.10;;;;;;6067059;28;81044;-65
2021/05/08 04:09:55;;;;;;;4.20;2.70;;;22.70;32.40;;;;;;6064234;28;82057;-66
2021/05/08 04:12:56;;;;;;;5.10;2.60;;;22.70;32.30;;;;;;6070487;28;81801;-65
2021/05/08 04:15:56;;;;;;;5.30;2.75;;;22.70;32.40;;;;;;6063623;28;85690;-65
2021/05/08 04:18:57;;;;;;;3.75;2.13;;;22.70;32.20;;;;;;6068519;28;80501;-66
2021/05/08 04:21:57;;;;;;;4.35;2.83;;;22.70;32.10;;;;;;6071756;28;81015;-66
2021/05/08 04:24:58;;;;;;;3.53;2.28;;;22.70;32.20;;;;;;6069868;28;80550;-66
2021/05/08 04:27:59;;;;;;;5.95;2.80;;;22.70;32.10;;;;;;6062294;28;80546;-65
2021/05/08 04:30:59;;;;;;;2.92;2.10;;;22.70;32.20;;;;;;6054177;28;80955;-66
2021/05/08 04:34:00;;;;;;;5.55;2.70;;;22.70;32.60;;;;;;6066497;28;80616;-66
2021/05/08 04:37:00;;;;;;;4.63;2.70;;;22.70;32.10;;;;;;6069094;28;80718;-66
2021/05/08 04:40:01;;;;;;;3.97;2.50;;;22.70;32.40;;;;;;6064405;28;80683;-58
2021/05/08 04:43:01;;;;;;;5.18;2.72;;;22.70;32.70;;;;;;6065693;28;81509;-66
2021/05/08 04:46:02;;;;;;;11.15;2.80;;;22.70;33.20;;;;;;6070193;28;86144;-67
2021/05/08 04:49:02;;;;;;;9.27;2.50;;;22.80;33.00;;;;;;6063712;28;81643;-66
2021/05/08 04:52:03;;;;;;;3.65;2.50;;;22.80;33.80;;;;;;6059115;28;81699;-66
2021/05/08 04:55:03;;;;;;;2.63;1.90;;;22.70;33.30;;;;;;6066296;28;80855;-66
2021/05/08 04:58:04;;;;;;;6.25;2.60;;;22.80;33.30;;;;;;6060863;28;80536;-69
2021/05/08 05:01:04;;;;;;;9.32;1.98;;;22.80;33.40;;;;;;6064578;28;80415;-66
2021/05/08 05:04:05;;;;;;;4.45;2.00;;;22.80;33.50;;;;;;6062078;28;81201;-64
2021/05/08 05:07:05;;;;;;;14.02;2.00;;;22.80;33.90;;;;;;6066497;28;80937;-65
2021/05/08 05:10:06;;;;;;;7.43;2.17;;;22.80;34.10;;;;;;6058221;28;80724;-65
2021/05/08 05:13:06;;;;;;;5.70;2.00;;;22.90;34.50;;;;;;6064421;28;83506;-66
2021/05/08 05:16:09;;;;;;;2.38;1.70;;;22.90;34.10;;;;;;6065530;28;80358;-66
2021/05/08 05:19:10;;;;;;;3.25;1.80;;;22.90;35.30;;;;;;6054913;28;80273;-66
2021/05/08 05:22:13;;;;;;;2.42;1.80;;;22.90;34.50;;;;;;6065722;28;80146;-65
2021/05/08 05:25:13;;;;;;;4.32;2.33;;;22.90;33.80;;;;;;6063903;28;81818;-67
2021/05/08 05:28:14;;;;;;;5.60;2.17;;;22.90;34.30;;;;;;6056934;28;80749;-65
2021/05/08 05:31:15;;;;;;;4.72;2.28;;;22.90;33.60;;;;;;6071457;28;83110;-66
2021/05/08 05:34:15;;;;;;;4.65;2.30;;;22.90;33.80;;;;;;6053682;28;80735;-66
2021/05/08 05:37:16;;;;;;;3.25;2.08;;;22.90;34.70;;;;;;6065295;28;81027;-66
2021/05/08 05:40:16;;;;;;;18.67;10.32;;;22.90;34.00;;;;;;6063989;28;80465;-68
2021/05/08 05:43:17;;;;;;;105.00;40.05;;;22.90;34.30;;;;;;6056475;28;83355;-67
2021/05/08 05:46:17;;;;;;;315.08;115.82;;;22.90;33.90;;;;;;6059296;28;83103;-67
2021/05/08 05:49:18;;;;;;;359.27;165.70;;;22.90;34.40;;;;;;6054305;28;85317;-67
2021/05/08 05:52:18;;;;;;;276.77;121.53;;;22.90;33.70;;;;;;6059861;28;85740;-68
2021/05/08 05:55:19;;;;;;;234.70;110.07;;;22.90;33.60;;;;;;6061196;28;85705;-66
2021/05/08 05:58:19;;;;;;;220.43;102.85;;;22.90;34.40;;;;;;6057963;28;85408;-67
2021/05/08 06:01:20;;;;;;;206.68;93.50;;;22.90;34.90;;;;;;6055275;28;86393;-68
2021/05/08 06:04:21;;;;;;;171.88;86.30;;;23.00;35.50;;;;;;6051579;28;85541;-66
2021/05/08 06:07:23;;;;;;;170.10;82.13;;;23.00;35.40;;;;;;6052382;28;83050;-66
2021/05/08 06:10:24;;;;;;;157.27;74.60;;;23.00;35.50;;;;;;6057422;28;84822;-68
2021/05/08 06:13:25;;;;;;;151.75;69.30;;;23.00;36.00;;;;;;6054323;28;82856;-67
2021/05/08 06:16:25;;;;;;;137.95;63.50;;;23.00;36.20;;;;;;6059993;28;83175;-67
2021/05/08 06:19:26;;;;;;;134.27;61.03;;;23.00;36.20;;;;;;6059327;28;83462;-66
2021/05/08 06:22:26;;;;;;;111.45;55.10;;;23.10;36.40;;;;;;6054748;28;84329;-66
2021/05/08 06:25:27;;;;;;;112.20;52.45;;;23.00;36.30;;;;;;6055658;28;84537;-65
2021/05/08 06:28:27;;;;;;;102.88;48.28;;;23.10;36.00;;;;;;6053694;28;83252;-66
2021/05/08 06:31:28;;;;;;;102.60;44.63;;;23.10;35.70;;;;;;6057167;28;83010;-66
2021/05/08 06:34:28;;;;;;;99.22;41.35;;;23.20;35.70;;;;;;6056046;28;83870;-66
2021/05/08 06:37:29;;;;;;;83.10;38.60;;;23.20;35.70;;;;;;6049922;28;83395;-67
2021/05/08 06:40:29;;;;;;;77.28;35.63;;;23.10;36.20;;;;;;6056099;28;82805;-66
2021/05/08 06:43:30;;;;;;;70.47;34.08;;;23.20;36.60;;;;;;6057381;28;82881;-67
2021/05/08 06:46:30;;;;;;;64.60;31.30;;;23.10;36.50;;;;;;6060780;28;83809;-66
2021/05/08 06:49:31;;;;;;;56.47;29.00;;;23.10;36.50;;;;;;6059638;28;86105;-66
2021/05/08 06:52:31;;;;;;;59.85;27.15;;;23.10;36.30;;;;;;6064228;28;86998;-66
2021/05/08 06:55:32;;;;;;;58.25;27.00;;;23.20;36.20;;;;;;6061035;28;84980;-67
2021/05/08 06:58:33;;;;;;;52.35;23.55;;;23.20;36.30;;;;;;6064009;28;83757;-65
2021/05/08 07:01:33;;;;;;;41.92;19.80;;;23.30;35.90;;;;;;6060526;28;84417;-66
2021/05/08 07:04:34;;;;;;;35.58;16.45;;;23.20;36.50;;;;;;6059399;28;83774;-67
2021/05/08 07:07:34;;;;;;;40.78;15.23;;;23.10;35.30;;;;;;6051504;28;83129;-66
2021/05/08 07:10:35;;;;;;;30.52;13.15;;;23.10;35.00;;;;;;6062733;28;86142;-65
2021/05/08 07:13:35;;;;;;;32.70;13.20;;;23.10;34.90;;;;;;6058561;28;86081;-66
2021/05/08 07:16:36;;;;;;;22.30;11.15;;;23.10;34.30;;;;;;6057799;28;84330;-65
2021/05/08 07:19:37;;;;;;;22.13;10.15;;;23.00;34.60;;;;;;6060628;28;83721;-64
2021/05/08 07:22:39;;;;;;;22.80;11.38;;;23.00;34.00;;;;;;6064420;28;83128;-67
2021/05/08 07:25:40;;;;;;;25.80;10.05;;;23.00;33.60;;;;;;6064862;28;83265;-64
2021/05/08 07:28:40;;;;;;;21.63;8.90;;;23.00;33.70;;;;;;6065920;28;83154;-66
2021/05/08 07:31:41;;;;;;;20.83;8.05;;;22.90;34.00;;;;;;6056301;28;85921;-67
2021/05/08 07:34:41;;;;;;;17.60;7.07;;;22.90;34.10;;;;;;6070245;28;82196;-67
2021/05/08 07:37:42;;;;;;;14.73;7.82;;;23.00;34.00;;;;;;6062768;28;83064;-66
2021/05/08 07:40:42;;;;;;;13.10;5.57;;;23.00;33.90;;;;;;6063940;28;80745;-66
2021/05/08 07:43:43;;;;;;;12.70;6.43;;;22.90;34.00;;;;;;6065028;28;81693;-66
2021/05/08 07:46:43;;;;;;;10.85;5.97;;;23.00;34.00;;;;;;6066853;28;83367;-66
2021/05/08 07:49:44;;;;;;;11.30;5.47;;;22.90;33.80;;;;;;6064924;28;80468;-67
2021/05/08 07:52:44;;;;;;;15.52;5.50;;;22.90;33.60;;;;;;6063381;28;80989;-67
2021/05/08 07:55:45;;;;;;;14.55;6.40;;;23.00;33.70;;;;;;6061826;28;80804;-67
2021/05/08 07:58:45;;;;;;;7.05;3.72;;;23.00;33.30;;;;;;6063962;28;80704;-65
2021/05/08 08:01:46;;;;;;;6.90;4.10;;;23.00;33.00;;;;;;6066263;28;81653;-67
2021/05/08 08:04:46;;;;;;;9.85;4.07;;;23.00;32.40;;;;;;6062101;28;84688;-66
2021/05/08 08:07:47;;;;;;;6.75;3.58;;;23.00;32.50;;;;;;6064770;28;82155;-66
2021/05/08 08:10:47;;;;;;;6.38;3.55;;;22.90;32.30;;;;;;6064365;28;81631;-66
2021/05/08 08:13:49;;;;;;;8.45;4.03;;;22.90;32.50;;;;;;6061039;28;80565;-67
2021/05/08 08:16:49;;;;;;;8.02;4.40;;;22.90;33.30;;;;;;6057354;28;80421;-66
2021/05/08 08:19:50;;;;;;;13.73;5.40;;;22.90;33.80;;;;;;6065127;28;80088;-66
2021/05/08 08:22:51;;;;;;;11.23;6.60;;;23.00;35.40;;;;;;6062078;28;80692;-66
2021/05/08 08:25:51;;;;;;;11.20;6.65;;;23.00;34.50;;;;;;6065164;28;81438;-66
2021/05/08 08:28:52;;;;;;;13.95;8.70;;;23.00;35.80;;;;;;6065201;28;80850;-66
2021/05/08 08:31:52;;;;;;;14.93;8.88;;;23.00;37.40;;;;;;6065791;28;80711;-66
2021/05/08 08:34:53;;;;;;;12.32;7.40;;;23.00;36.20;;;;;;6067095;28;80470;-65
2021/05/08 08:37:53;;;;;;;10.23;6.50;;;23.00;36.10;;;;;;6060788;28;80272;-66
2021/05/08 08:40:54;;;;;;;10.48;5.95;;;23.00;36.00;;;;;;6062717;28;80934;-67
2021/05/08 08:43:55;;;;;;;11.73;5.70;;;23.00;34.80;;;;;;6060919;28;81832;-68
2021/05/08 08:46:55;;;;;;;11.23;4.95;;;23.00;35.50;;;;;;6066741;28;81150;-67
2021/05/08 08:49:56;;;;;;;7.07;4.25;;;23.00;35.90;;;;;;6059627;28;81686;-67
2021/05/08 08:52:56;;;;;;;6.05;3.33;;;23.00;34.10;;;;;;6065671;28;83665;-68
2021/05/08 08:55:58;;;;;;;5.60;3.33;;;23.00;34.20;;;;;;6062272;28;82912;-67
2021/05/08 08:59:04;;;;;;;9.27;4.18;;;23.00;33.70;;;;;;6065609;28;80720;-67
2021/05/08 09:02:04;;;;;;;4.33;3.37;;;23.00;33.90;;;;;;6060141;28;81530;-67
2021/05/08 09:05:05;;;;;;;5.53;3.05;;;23.00;32.20;;;;;;6061852;28;81264;-65
2021/05/08 09:08:08;;;;;;;4.97;2.80;;;23.00;31.70;;;;;;6060066;28;82655;-67
2021/05/08 09:11:08;;;;;;;4.75;2.65;;;22.90;31.00;;;;;;6064653;28;80410;-66
2021/05/08 09:14:09;;;;;;;5.63;2.30;;;22.90;30.50;;;;;;6046313;28;83230;-65
2021/05/08 09:17:09;;;;;;;4.85;2.70;;;22.90;31.30;;;;;;6063654;28;81402;-66
2021/05/08 09:20:10;;;;;;;4.47;2.55;;;22.90;31.10;;;;;;6061921;28;80499;-66
2021/05/08 09:23:10;;;;;;;8.00;2.85;;;22.90;30.80;;;;;;6066645;28;80714;-67
2021/05/08 09:26:11;;;;;;;4.53;1.90;;;22.90;30.40;;;;;;6059351;28;80583;-67
2021/05/08 09:29:12;;;;;;;4.25;2.92;;;22.90;30.40;;;;;;6064293;28;83480;-67
2021/05/08 09:32:12;;;;;;;5.90;3.22;;;22.90;30.10;;;;;;6061833;28;80501;-66
2021/05/08 09:35:13;;;;;;;4.38;2.50;;;22.90;30.40;;;;;;6067980;28;80827;-66
2021/05/08 09:38:14;;;;;;;6.82;2.88;;;22.90;30.20;;;;;;6061128;28;81001;-66
2021/05/08 09:41:14;;;;;;;4.18;2.33;;;22.90;30.10;;;;;;6065311;28;80952;-66
2021/05/08 09:44:15;;;;;;;5.15;2.28;;;22.80;29.90;;;;;;6063028;28;80630;-66
2021/05/08 09:47:15;;;;;;;4.43;1.85;;;22.70;29.70;;;;;;6060610;28;80364;-66
2021/05/08 09:50:16;;;;;;;4.32;1.98;;;22.70;29.90;;;;;;6057855;28;80549;-66
2021/05/08 09:53:16;;;;;;;2.42;1.80;;;22.70;30.10;;;;;;6060273;28;80738;-67
2021/05/08 09:56:17;;;;;;;3.35;1.98;;;22.70;30.00;;;;;;6058849;28;80745;-67
2021/05/08 09:59:17;;;;;;;2.85;2.10;;;22.80;30.10;;;;;;6049701;28;80504;-67
2021/05/08 10:02:18;;;;;;;4.00;1.83;;;22.80;30.60;;;;;;6070205;28;80366;-66
2021/05/08 10:05:18;;;;;;;3.22;1.98;;;22.80;30.80;;;;;;6064606;28;80699;-66
2021/05/08 10:08:19;;;;;;;2.40;1.70;;;22.80;31.60;;;;;;6044272;28;80431;-66
2021/05/08 10:11:19;;;;;;;2.75;1.40;;;22.90;32.10;;;;;;6060096;28;81876;-66
2021/05/08 10:14:20;;;;;;;6.82;2.13;;;22.90;31.90;;;;;;6058967;28;81460;-66
2021/05/08 10:17:20;;;;;;;3.53;1.80;;;23.00;31.70;;;;;;6064895;28;81818;-66
2021/05/08 10:20:21;;;;;;;2.42;1.52;;;23.00;32.20;;;;;;6064162;28;80795;-66
2021/05/08 10:23:22;;;;;;;3.38;2.03;;;23.00;32.00;;;;;;6065807;28;83432;-66
2021/05/08 10:26:22;;;;;;;6.00;2.10;;;23.00;32.20;;;;;;6058777;28;80842;-66
2021/05/08 10:29:23;;;;;;;3.83;1.90;;;23.00;31.70;;;;;;6067983;28;80377;-66
2021/05/08 10:32:23;;;;;;;2.72;1.58;;;23.00;32.10;;;;;;6065947;28;80184;-65
2021/05/08 10:35:24;;;;;;;3.33;1.85;;;23.00;31.80;;;;;;6065989;28;80908;-66
2021/05/08 10:38:31;;;;;;;2.17;1.75;;;23.00;32.30;;;;;;6064379;28;80925;-66
2021/05/08 10:41:31;;;;;;;3.70;2.13;;;23.00;31.70;;;;;;6062377;28;81358;-63
2021/05/08 10:44:32;;;;;;;2.20;1.60;;;23.00;31.70;;;;;;6060049;28;81776;-65
2021/05/08 10:47:32;;;;;;;2.17;1.45;;;23.00;31.50;;;;;;6064669;28;83674;-66
2021/05/08 10:50:34;;;;;;;6.32;1.63;;;23.00;31.90;;;;;;6064499;28;80295;-66
2021/05/08 10:53:34;;;;;;;2.25;1.50;;;23.10;31.70;;;;;;6063583;28;80453;-67
2021/05/08 10:56:35;;;;;;;4.07;1.73;;;23.10;31.90;;;;;;6063005;28;81923;-66
2021/05/08 10:59:36;;;;;;;5.43;1.48;;;23.10;31.70;;;;;;6072691;28;81606;-66
2021/05/08 11:02:36;;;;;;;3.78;1.50;;;23.10;31.70;;;;;;6064342;28;82398;-65
2021/05/08 11:05:39;;;;;;;4.28;2.00;;;23.10;32.20;;;;;;6063317;28;82886;-65
2021/05/08 11:08:40;;;;;;;2.90;1.50;;;23.10;32.30;;;;;;6065169;28;80541;-68
2021/05/08 11:11:40;;;;;;;3.83;1.58;;;23.10;33.00;;;;;;6059751;28;81047;-66
2021/05/08 11:14:41;;;;;;;3.42;2.20;;;23.10;33.40;;;;;;6067101;28;80431;-64
2021/05/08 11:17:41;;;;;;;5.93;2.33;;;23.10;32.70;;;;;;6063864;28;81027;-66
2021/05/08 11:20:42;;;;;;;1.98;1.67;;;23.20;32.70;;;;;;6067667;28;80571;-67
2021/05/08 11:23:42;;;;;;;3.85;2.00;;;23.20;32.90;;;;;;6063624;28;80906;-65
2021/05/08 11:26:43;;;;;;;4.13;1.80;;;23.20;32.70;;;;;;6061171;28;80739;-66
2021/05/08 11:29:43;;;;;;;2.70;1.58;;;23.20;32.90;;;;;;6060666;28;80519;-65
2021/05/08 11:32:44;;;;;;;2.85;1.83;;;23.10;32.70;;;;;;6066268;28;81005;-66
2021/05/08 11:35:44;;;;;;;3.03;1.65;;;23.10;32.70;;;;;;6062158;28;80424;-66
2021/05/08 11:38:45;;;;;;;5.40;2.45;;;23.10;32.60;;;;;;6057394;28;81797;-66
2021/05/08 11:41:46;;;;;;;16.08;9.07;;;23.10;32.30;;;;;;6061185;28;81452;-67
2021/05/08 11:44:46;;;;;;;30.83;16.55;;;23.10;32.10;;;;;;6071059;28;80565;-66
2021/05/08 11:47:47;;;;;;;42.40;21.58;;;23.10;31.70;;;;;;6064153;28;87029;-67
2021/05/08 11:50:47;;;;;;;44.53;21.83;;;23.20;31.80;;;;;;6046597;28;83334;-66
2021/05/08 11:53:48;;;;;;;53.75;27.17;;;23.10;31.70;;;;;;6065185;28;83338;-66
2021/05/08 11:56:48;;;;;;;51.95;25.73;;;23.20;31.60;;;;;;6051368;28;83610;-66
2021/05/08 11:59:49;;;;;;;50.45;25.20;;;23.10;31.60;;;;;;6055648;28;83360;-68
2021/05/08 12:02:49;;;;;;;47.30;23.90;;;23.20;31.80;;;;;;6052099;28;84159;-67
2021/05/08 12:05:50;;;;;;;39.13;21.05;;;23.30;31.80;;;;;;6058110;28;83269;-65
2021/05/08 12:08:50;;;;;;;31.42;18.48;;;23.20;31.40;;;;;;6066389;28;83505;-66
2021/05/08 12:11:51;;;;;;;35.70;18.55;;;23.20;31.50;;;;;;6064942;28;84482;-66
2021/05/08 12:14:52;;;;;;;34.90;17.45;;;23.30;31.30;;;;;;6058424;28;86757;-65
2021/05/08 12:17:52;;;;;;;31.23;15.23;;;23.30;31.30;;;;;;6063826;28;83378;-66
2021/05/08 12:20:53;;;;;;;27.83;16.17;;;23.30;31.70;;;;;;6058036;28;83223;-65
2021/05/08 12:23:53;;;;;;;25.05;13.75;;;23.30;32.00;;;;;;6062819;28;83283;-65
2021/05/08 12:26:54;;;;;;;23.67;13.10;;;23.30;31.30;;;;;;6059748;28;84558;-66
2021/05/08 12:29:54;;;;;;;24.92;13.02;;;23.30;31.80;;;;;;6058635;28;85681;-64
2021/05/08 12:32:55;;;;;;;19.58;11.13;;;23.30;31.20;;;;;;6052612;28;83369;-66
2021/05/08 12:35:56;;;;;;;21.27;10.07;;;23.30;31.10;;;;;;6059716;28;82902;-63
2021/05/08 12:38:56;;;;;;;18.10;8.80;;;23.30;31.20;;;;;;6056635;28;83534;-63
2021/05/08 12:41:57;;;;;;;17.52;10.00;;;23.30;31.00;;;;;;6065895;28;90156;-66
2021/05/08 12:44:57;;;;;;;16.95;8.68;;;23.30;31.10;;;;;;6059088;28;83114;-65
2021/05/08 12:47:58;;;;;;;13.85;7.93;;;23.30;30.90;;;;;;6071989;28;82969;-66
2021/05/08 12:50:58;;;;;;;17.90;7.97;;;23.30;31.20;;;;;;6056194;28;80207;-65
2021/05/08 12:53:59;;;;;;;13.10;7.13;;;23.30;31.30;;;;;;6061065;28;80779;-66
2021/05/08 12:56:59;;;;;;;12.40;6.95;;;23.30;31.80;;;;;;6053037;28;80560;-65
2021/05/08 13:00:00;;;;;;;15.25;6.55;;;23.30;31.40;;;;;;6055726;28;81252;-64
2021/05/08 13:03:00;;;;;;;11.45;6.68;;;23.40;31.20;;;;;;6053714;28;80619;-67
2021/05/08 13:06:01;;;;;;;13.20;5.75;;;23.40;31.70;;;;;;6051566;28;80280;-65
2021/05/08 13:09:01;;;;;;;9.23;5.47;;;23.40;31.50;;;;;;6058603;28;81732;-65
2021/05/08 13:12:02;;;;;;;9.75;4.95;;;23.40;32.00;;;;;;6058686;28;82769;-66
2021/05/08 13:15:02;;;;;;;9.32;4.80;;;23.40;31.40;;;;;;6056433;28;80403;-65
2021/05/08 13:18:03;;;;;;;7.25;4.68;;;23.30;31.00;;;;;;6065400;28;81682;-66
2021/05/08 13:21:03;;;;;;;6.38;4.35;;;23.40;31.40;;;;;;6046289;28;80750;-66
2021/05/08 13:24:05;;;;;;;9.40;4.70;;;23.30;31.50;;;;;;6055657;28;82385;-65
2021/05/08 13:27:05;;;;;;;7.18;4.38;;;23.40;31.70;;;;;;6059487;28;80401;-65
2021/05/08 13:30:06;;;;;;;10.35;4.82;;;23.40;31.90;;;;;;6062912;28;80410;-65
2021/05/08 13:33:06;;;;;;;8.75;5.13;;;23.40;31.90;;;;;;6061689;28;81316;-63
2021/05/08 13:36:07;;;;;;;7.68;4.05;;;23.50;32.00;;;;;;6058813;28;80844;-64
2021/05/08 13:39:07;;;;;;;7.53;4.35;;;23.40;31.20;;;;;;6055984;28;81042;-64
2021/05/08 13:42:08;;;;;;;5.50;3.72;;;23.40;31.70;;;;;;6061671;28;81873;-65
2021/05/08 13:45:09;;;;;;;5.60;3.45;;;23.40;31.10;;;;;;6060323;28;82053;-64
2021/05/08 13:48:10;;;;;;;9.05;3.67;;;23.30;31.20;;;;;;6054634;28;80308;-66
2021/05/08 13:51:10;;;;;;;5.35;3.10;;;23.40;31.40;;;;;;6060837;28;80661;-65
2021/05/08 13:54:11;;;;;;;4.65;3.00;;;23.40;31.60;;;;;;6065737;28;80343;-66
2021/05/08 13:57:11;;;;;;;6.28;3.45;;;23.40;31.50;;;;;;6057085;28;80407;-64
2021/05/08 14:00:12;;;;;;;3.97;2.58;;;23.40;32.10;;;;;;6059219;28;83362;-65
2021/05/08 14:03:12;;;;;;;5.57;3.47;;;23.40;31.50;;;;;;6067514;28;80405;-65
2021/05/08 14:06:14;;;;;;;5.30;2.83;;;23.40;31.80;;;;;;6063595;28;80263;-66
2021/05/08 14:09:15;;;;;;;4.18;2.65;;;23.50;31.60;;;;;;6059272;28;82961;-67
2021/05/08 14:12:15;;;;;;;5.03;3.10;;;23.40;31.50;;;;;;6065277;28;83153;-65
2021/05/08 14:15:16;;;;;;;4.35;2.38;;;23.40;31.20;;;;;;6052991;28;81658;-64
2021/05/08 14:18:16;;;;;;;5.22;2.83;;;23.40;31.70;;;;;;6052207;28;80707;-65
2021/05/08 14:21:17;;;;;;;8.52;2.67;;;23.40;31.10;;;;;;6055741;28;82647;-64
2021/05/08 14:24:18;;;;;;;4.85;2.10;;;23.40;31.10;;;;;;6057739;28;83931;-65
2021/05/08 14:27:19;;;;;;;3.40;2.40;;;23.50;31.50;;;;;;6054651;28;82120;-65
2021/05/08 14:30:19;;;;;;;4.32;2.38;;;23.40;30.90;;;;;;6060123;28;80990;-64
2021/05/08 14:33:22;;;;;;;4.88;2.45;;;23.40;30.90;;;;;;6061254;28;80241;-65
2021/05/08 14:36:23;;;;;;;5.78;2.58;;;23.40;30.60;;;;;;6054337;28;81961;-64
2021/05/08 14:39:23;;;;;;;3.13;2.05;;;23.40;31.00;;;;;;6057381;28;81671;-65
2021/05/08 14:42:24;;;;;;;6.63;2.10;;;23.40;31.20;;;;;;6058207;28;80452;-65
2021/05/08 14:45:24;;;;;;;3.30;1.92;;;23.40;31.10;;;;;;6068028;28;80381;-65
2021/05/08 14:48:25;;;;;;;2.47;1.92;;;23.40;31.00;;;;;;6059760;28;83335;-64
2021/05/08 14:51:25;;;;;;;3.63;2.03;;;23.40;31.00;;;;;;6064460;28;80376;-65
2021/05/08 14:54:26;;;;;;;3.63;2.40;;;23.30;30.70;;;;;;6057227;28;80007;-65
2021/05/08 14:57:26;;;;;;;3.47;1.75;;;23.30;31.20;;;;;;6069251;28;81244;-66
2021/05/08 15:00:27;;;;;;;3.33;1.90;;;23.40;31.20;;;;;;6066007;28;81095;-68
2021/05/08 15:03:27;;;;;;;4.90;2.42;;;23.40;31.30;;;;;;6070017;28;80979;-65
2021/05/08 15:06:28;;;;;;;14.40;2.30;;;23.40;31.20;;;;;;6069041;28;80546;-65
2021/05/08 15:09:29;;;;;;;4.30;1.98;;;23.40;30.90;;;;;;6063827;28;81106;-64
2021/05/08 15:12:30;;;;;;;3.05;1.83;;;23.40;31.10;;;;;;6063215;28;80988;-65
2021/05/08 15:15:30;;;;;;;2.65;1.70;;;23.40;30.50;;;;;;6063151;28;80686;-66
2021/05/08 15:18:32;;;;;;;4.65;1.58;;;23.40;30.30;;;;;;6062994;28;80466;-65
2021/05/08 15:21:33;;;;;;;4.80;2.17;;;23.40;30.20;;;;;;6062118;28;80451;-66
2021/05/08 15:24:33;;;;;;;2.83;1.83;;;23.40;30.30;;;;;;6067196;28;81628;-66
2021/05/08 15:27:34;;;;;;;4.68;1.80;;;23.40;30.80;;;;;;6062105;28;81886;-66
2021/05/08 15:30:35;;;;;;;2.20;1.40;;;23.40;30.50;;;;;;6068757;28;80634;-66
2021/05/08 15:33:35;;;;;;;5.35;1.63;;;23.40;30.30;;;;;;6062502;28;81080;-66